createdAt,value
2019-02-28T00:01:06.662Z,53.14
2019-02-28T00:03:36.217Z,52.86
2019-02-28T00:06:05.771Z,53.00
2019-02-28T00:08:35.270Z,53.15
2019-02-28T00:11:05.929Z,53.17
2019-02-28T00:13:35.458Z,53.15
2019-02-28T00:16:05.087Z,53.18
2019-02-28T00:18:34.690Z,52.83
2019-02-28T00:21:06.922Z,53.11
2019-02-28T00:23:35.344Z,53.02
2019-02-28T00:26:04.949Z,53.07
2019-02-28T00:28:34.560Z,53.28
2019-02-28T00:31:04.184Z,53.32
2019-02-28T00:33:33.718Z,53.42
2019-02-28T00:36:03.298Z,53.53
2019-02-28T00:38:32.849Z,53.72
2019-02-28T00:41:02.536Z,53.90
2019-02-28T00:43:31.705Z,53.97
2019-02-28T00:46:02.353Z,54.00
2019-02-28T00:48:31.653Z,53.96
2019-02-28T00:51:01.327Z,54.18
2019-02-28T00:53:30.952Z,54.34
2019-02-28T00:56:00.674Z,54.44
2019-02-28T00:58:29.902Z,54.71
2019-02-28T01:00:59.469Z,54.75
2019-02-28T01:03:28.998Z,55.00
2019-02-28T01:05:59.255Z,55.31
2019-02-28T01:08:28.703Z,55.44
2019-02-28T01:10:58.440Z,55.44
2019-02-28T01:13:28.202Z,55.90
2019-02-28T01:15:57.790Z,55.91
2019-02-28T01:18:27.073Z,56.15
2019-02-28T01:20:56.660Z,56.08
2019-02-28T01:23:26.104Z,56.04
2019-02-28T01:25:56.592Z,56.26
2019-02-28T01:28:27.066Z,56.58
2019-02-28T01:30:57.172Z,56.55
2019-02-28T01:33:26.521Z,56.22
2019-02-28T01:35:56.139Z,56.22
2019-02-28T01:38:25.593Z,56.30
2019-02-28T01:40:55.088Z,56.17
2019-02-28T01:43:28.363Z,56.11
2019-02-28T01:45:55.755Z,56.27
2019-02-28T01:48:25.202Z,56.30
2019-02-28T01:50:54.707Z,56.33
2019-02-28T01:53:24.211Z,56.62
2019-02-28T01:55:53.739Z,56.37
2019-02-28T01:58:23.391Z,56.16
2019-02-28T02:00:53.665Z,56.19
2019-02-28T02:03:24.061Z,56.15
2019-02-28T02:05:53.696Z,56.16
2019-02-28T02:08:23.309Z,56.06
2019-02-28T02:10:55.848Z,55.99
2019-02-28T02:13:24.120Z,55.57
2019-02-28T02:15:53.639Z,55.53
2019-02-28T02:18:23.135Z,55.61
2019-02-28T02:20:52.602Z,55.70
2019-02-28T02:23:22.151Z,55.62
2019-02-28T02:25:51.612Z,55.48
2019-02-28T02:28:21.217Z,55.57
2019-02-28T02:30:52.144Z,55.50
2019-02-28T02:33:21.811Z,55.30
2019-02-28T02:35:51.369Z,55.53
2019-02-28T02:38:20.910Z,55.62
2019-02-28T02:40:50.622Z,55.60
2019-02-28T02:43:21.898Z,55.61
2019-02-28T02:45:51.431Z,55.90
2019-02-28T02:48:20.992Z,56.03
2019-02-28T02:50:50.532Z,56.39
2019-02-28T02:53:20.104Z,56.55
2019-02-28T02:55:49.675Z,56.81
2019-02-28T02:58:19.135Z,56.85
2019-02-28T03:00:51.254Z,56.81
2019-02-28T03:03:20.227Z,56.99
2019-02-28T03:05:50.545Z,57.21
2019-02-28T03:08:21.696Z,57.11
2019-02-28T03:10:53.009Z,57.29
2019-02-28T03:13:22.744Z,57.64
2019-02-28T03:15:52.215Z,57.59
2019-02-28T03:18:21.943Z,57.76
2019-02-28T03:20:51.452Z,58.07
2019-02-28T03:23:21.070Z,58.04
2019-02-28T03:25:50.442Z,58.23
2019-02-28T03:28:20.001Z,58.09
2019-02-28T03:30:49.657Z,58.24
2019-02-28T03:33:27.497Z,58.42
2019-02-28T03:35:50.122Z,58.61
2019-02-28T03:38:19.678Z,58.31
2019-02-28T03:40:49.230Z,58.44
2019-02-28T03:43:18.757Z,58.47
2019-02-28T03:45:48.269Z,58.42
2019-02-28T03:48:17.753Z,58.60
2019-02-28T03:50:47.381Z,58.46
2019-02-28T03:53:19.957Z,58.47
2019-02-28T03:55:48.228Z,58.41
2019-02-28T03:58:17.771Z,58.50
2019-02-28T04:00:47.441Z,58.39
2019-02-28T04:03:17.043Z,58.60
2019-02-28T04:05:46.632Z,58.77
2019-02-28T04:08:16.166Z,58.77
2019-02-28T04:10:45.662Z,58.96
2019-02-28T04:13:19.138Z,59.14
2019-02-28T04:16:01.477Z,59.51
2019-02-28T04:18:17.750Z,59.23
2019-02-28T04:20:47.232Z,59.41
2019-02-28T04:23:16.696Z,59.20
2019-02-28T04:25:46.182Z,59.50
2019-02-28T04:28:18.653Z,59.50
2019-02-28T04:30:46.958Z,59.35
2019-02-28T04:33:16.423Z,59.54
2019-02-28T04:35:45.962Z,59.83
2019-02-28T04:38:20.443Z,59.63
2019-02-28T04:41:07.842Z,59.66
2019-02-28T04:43:37.278Z,59.97
2019-02-28T04:46:06.735Z,60.36
2019-02-28T04:48:36.857Z,60.43
2019-02-28T04:51:06.613Z,60.75
2019-02-28T04:53:36.168Z,60.38
2019-02-28T04:56:11.027Z,60.68
2019-02-28T04:58:36.893Z,60.56
2019-02-28T05:01:09.125Z,60.55
2019-02-28T05:03:37.473Z,60.93
2019-02-28T05:06:07.032Z,60.91
2019-02-28T05:08:38.874Z,61.40
2019-02-28T05:11:07.641Z,61.25
2019-02-28T05:13:37.119Z,61.52
2019-02-28T05:16:06.079Z,61.65
2019-02-28T05:18:35.532Z,61.36
2019-02-28T05:21:04.991Z,61.70
2019-02-28T05:23:36.160Z,61.58
2019-02-28T05:26:05.633Z,61.82
2019-02-28T05:28:40.173Z,61.84
2019-02-28T05:31:06.995Z,61.91
2019-02-28T05:33:38.329Z,62.15
2019-02-28T05:36:07.899Z,62.45
2019-02-28T05:38:37.405Z,62.66
2019-02-28T05:41:07.322Z,62.84
2019-02-28T05:43:36.948Z,63.19
2019-02-28T05:46:06.489Z,63.04
2019-02-28T05:48:38.750Z,63.38
2019-02-28T05:51:07.666Z,63.23
2019-02-28T05:53:37.104Z,63.23
2019-02-28T05:56:06.987Z,63.18
2019-02-28T05:58:36.421Z,63.33
2019-02-28T06:01:08.720Z,63.33
2019-02-28T06:03:37.268Z,63.33
2019-02-28T06:06:08.048Z,63.36
2019-02-28T06:08:39.227Z,63.41
2019-02-28T06:11:28.168Z,63.14
2019-02-28T06:13:57.701Z,63.50
2019-02-28T06:16:27.297Z,63.82
2019-02-28T06:18:56.488Z,64.33
2019-02-28T06:21:25.669Z,63.91
2019-02-28T06:23:54.980Z,63.92
2019-02-28T06:26:24.297Z,63.48
2019-02-28T06:28:53.308Z,63.17
2019-02-28T06:33:56.551Z,62.27
2019-02-28T06:36:29.183Z,62.17
2019-02-28T06:38:57.074Z,60.84
2019-02-28T06:41:26.559Z,60.48
2019-02-28T06:43:56.099Z,58.69
2019-02-28T06:46:25.628Z,57.94
2019-02-28T06:49:01.126Z,56.83
2019-02-28T06:51:26.069Z,55.73
2019-02-28T06:53:55.763Z,56.11
2019-02-28T06:56:25.214Z,56.06
2019-02-28T06:58:54.949Z,55.11
2019-02-28T07:01:24.550Z,55.31
2019-02-28T07:03:53.938Z,54.85
2019-02-28T07:06:23.518Z,54.63
2019-02-28T07:08:53.084Z,53.58
2019-02-28T07:11:22.632Z,52.62
2019-02-28T07:13:52.202Z,52.17
2019-02-28T07:16:21.833Z,51.72
2019-02-28T07:18:53.828Z,51.50
2019-02-28T07:21:24.475Z,51.62
2019-02-28T07:23:54.067Z,50.59
2019-02-28T07:26:23.621Z,50.28
2019-02-28T07:28:53.145Z,49.29
2019-02-28T07:31:24.713Z,47.75
2019-02-28T07:33:53.932Z,47.33
2019-02-28T07:36:23.434Z,46.35
2019-02-28T07:38:52.969Z,47.19
2019-02-28T07:41:26.473Z,47.08
2019-02-28T07:43:53.738Z,46.65
2019-02-28T07:46:24.711Z,45.47
2019-02-28T07:48:54.240Z,44.67
2019-02-28T07:51:26.197Z,43.41
2019-02-28T07:53:56.035Z,43.15
2019-02-28T07:56:25.525Z,43.21
2019-02-28T07:58:55.187Z,43.29
2019-02-28T08:01:27.761Z,42.89
2019-02-28T08:03:56.135Z,43.20
2019-02-28T08:06:25.902Z,42.43
2019-02-28T08:08:55.548Z,42.70
2019-02-28T08:11:25.734Z,42.70
2019-02-28T08:13:55.596Z,42.50
2019-02-28T08:16:25.056Z,41.59
2019-02-28T08:18:54.668Z,41.73
2019-02-28T08:21:24.414Z,41.42
2019-02-28T08:23:53.947Z,41.09
2019-02-28T08:26:22.838Z,42.36
2019-02-28T08:28:52.461Z,41.68
2019-02-28T08:31:21.953Z,41.65
2019-02-28T08:33:51.640Z,42.11
2019-02-28T08:36:21.566Z,42.07
2019-02-28T08:38:51.233Z,41.31
2019-02-28T08:41:22.537Z,41.03
2019-02-28T08:43:51.982Z,40.36
2019-02-28T08:46:21.311Z,40.37
2019-02-28T08:48:50.921Z,40.37
2019-02-28T08:51:20.474Z,40.08
2019-02-28T08:53:51.342Z,40.46
2019-02-28T08:56:21.368Z,40.38
2019-02-28T08:59:12.177Z,40.66
2019-02-28T09:02:02.212Z,41.30
2019-02-28T09:04:40.789Z,41.77
2019-02-28T09:07:02.888Z,43.25
2019-02-28T09:09:34.390Z,44.35
2019-02-28T09:12:03.946Z,45.67
2019-02-28T09:14:33.400Z,46.18
2019-02-28T09:17:02.983Z,46.29
2019-02-28T09:19:35.994Z,46.98
2019-02-28T09:22:04.375Z,47.61
2019-02-28T09:24:33.865Z,47.75
2019-02-28T09:27:04.103Z,47.64
2019-02-28T09:29:34.500Z,47.64
2019-02-28T09:32:06.283Z,48.01
2019-02-28T09:34:35.708Z,48.15
2019-02-28T09:37:05.347Z,48.17
2019-02-28T09:39:34.940Z,48.03
2019-02-28T09:42:04.767Z,47.66
2019-02-28T09:44:34.252Z,47.71
2019-02-28T09:47:03.852Z,47.50
2019-02-28T09:49:33.287Z,47.03
2019-02-28T09:52:03.145Z,46.85
2019-02-28T09:54:34.026Z,47.22
2019-02-28T09:57:03.614Z,47.31
2019-02-28T09:59:37.384Z,47.71
2019-02-28T10:02:08.077Z,47.41
2019-02-28T10:04:35.685Z,47.26
2019-02-28T10:07:05.274Z,47.38
2019-02-28T10:09:34.732Z,46.97
2019-02-28T10:12:07.840Z,46.80
2019-02-28T10:14:36.816Z,46.78
2019-02-28T10:17:06.391Z,46.64
2019-02-28T10:19:44.774Z,46.81
2019-02-28T10:22:07.116Z,46.74
2019-02-28T10:24:36.613Z,46.91
2019-02-28T10:27:08.200Z,46.52
2019-02-28T10:29:38.506Z,46.33
2019-02-28T10:32:09.693Z,46.38
2019-02-28T10:34:39.264Z,46.45
2019-02-28T10:37:09.255Z,46.71
2019-02-28T10:39:40.222Z,46.91
2019-02-28T10:42:10.070Z,46.99
2019-02-28T10:44:39.568Z,47.06
2019-02-28T10:47:09.561Z,46.76
2019-02-28T10:49:39.058Z,47.10
2019-02-28T10:52:08.697Z,46.42
2019-02-28T10:54:38.282Z,46.28
2019-02-28T10:57:09.733Z,45.72
2019-02-28T10:59:39.263Z,45.35
2019-02-28T11:02:08.976Z,44.83
2019-02-28T11:04:42.805Z,44.69
2019-02-28T11:07:09.994Z,44.48
2019-02-28T11:09:39.701Z,44.39
2019-02-28T11:12:09.592Z,44.87
2019-02-28T11:14:39.426Z,44.48
2019-02-28T11:17:13.688Z,44.35
2019-02-28T11:19:40.976Z,43.57
2019-02-28T11:22:10.639Z,43.44
2019-02-28T11:24:40.238Z,42.89
2019-02-28T11:27:09.971Z,42.06
2019-02-28T11:29:39.543Z,42.45
2019-02-28T11:32:09.476Z,42.35
2019-02-28T11:34:39.074Z,41.93
2019-02-28T11:37:09.910Z,42.27
2019-02-28T11:39:39.497Z,42.02
2019-02-28T11:42:09.432Z,42.60
2019-02-28T11:44:39.075Z,42.50
2019-02-28T11:47:11.214Z,42.77
2019-02-28T11:49:40.021Z,42.77
2019-02-28T11:52:10.116Z,42.82
2019-02-28T11:54:39.815Z,42.71
2019-02-28T11:57:09.841Z,42.92
2019-02-28T11:59:39.507Z,43.06
2019-02-28T12:02:09.491Z,42.72
2019-02-28T12:04:59.745Z,42.82
2019-02-28T12:07:34.722Z,42.55
2019-02-28T12:10:02.116Z,42.20
2019-02-28T12:12:31.733Z,42.25
2019-02-28T12:15:02.696Z,42.13
2019-02-28T12:17:32.762Z,41.37
2019-02-28T12:20:03.883Z,41.74
2019-02-28T12:22:33.557Z,41.01
2019-02-28T12:25:04.465Z,40.67
2019-02-28T12:27:34.022Z,40.02
2019-02-28T12:30:25.145Z,39.42
2019-02-28T12:33:19.104Z,38.88
2019-02-28T12:35:46.965Z,38.95
2019-02-28T12:38:16.456Z,38.84
2019-02-28T12:40:48.534Z,39.30
2019-02-28T12:43:17.249Z,39.54
2019-02-28T12:45:47.393Z,39.96
2019-02-28T12:48:17.185Z,40.09
2019-02-28T12:50:46.721Z,40.10
2019-02-28T12:53:16.294Z,40.26
2019-02-28T12:55:45.762Z,40.26
2019-02-28T12:58:15.358Z,40.36
2019-02-28T13:00:46.210Z,40.82
2019-02-28T13:03:19.478Z,40.92
2019-02-28T13:05:49.260Z,40.96
2019-02-28T13:08:18.326Z,40.83
2019-02-28T13:10:47.756Z,40.92
2019-02-28T13:13:21.650Z,41.02
2019-02-28T13:15:49.349Z,41.14
2019-02-28T13:18:19.038Z,40.72
2019-02-28T13:20:48.590Z,40.40
2019-02-28T13:23:18.237Z,40.54
2019-02-28T13:25:47.856Z,40.66
2019-02-28T13:28:18.159Z,40.19
2019-02-28T13:30:50.143Z,40.39
2019-02-28T13:36:37.290Z,39.92
2019-02-28T13:39:31.765Z,40.07
2019-02-28T13:42:18.384Z,39.83
2019-02-28T13:44:47.899Z,39.82
2019-02-28T13:47:17.361Z,39.53
2019-02-28T13:49:49.789Z,39.59
2019-02-28T13:52:20.491Z,39.47
2019-02-28T13:54:49.405Z,39.62
2019-02-28T13:57:18.916Z,39.77
2019-02-28T13:59:48.545Z,40.00
2019-02-28T14:02:18.128Z,40.01
2019-02-28T14:04:47.773Z,40.16
2019-02-28T14:07:17.314Z,39.92
2019-02-28T14:09:46.954Z,39.87
2019-02-28T14:15:28.866Z,40.11
2019-02-28T14:17:58.411Z,40.23
2019-02-28T14:20:28.483Z,40.18
2019-02-28T14:22:57.921Z,40.09
2019-02-28T14:25:27.466Z,40.04
2019-02-28T14:28:17.832Z,40.22
2019-02-28T14:30:47.487Z,40.46
2019-02-28T14:33:19.484Z,40.62
2019-02-28T14:35:48.240Z,40.87
2019-02-28T14:38:17.523Z,40.98
2019-02-28T14:40:49.654Z,41.06
2019-02-28T14:43:19.683Z,41.01
2019-02-28T14:46:29.483Z,41.28
2019-02-28T14:52:14.376Z,41.16
2019-02-28T14:54:44.009Z,41.17
2019-02-28T14:57:16.576Z,40.61
2019-02-28T14:59:44.633Z,40.53
2019-02-28T15:02:14.363Z,40.29
2019-02-28T15:04:45.711Z,40.55
2019-02-28T15:07:15.117Z,40.66
2019-02-28T15:09:44.600Z,40.82
2019-02-28T15:15:29.534Z,40.91
2019-02-28T15:17:59.139Z,41.31
2019-02-28T15:20:32.096Z,40.94
2019-02-28T15:23:00.058Z,40.93
2019-02-28T15:25:30.750Z,41.07
2019-02-28T15:28:00.467Z,41.47
2019-02-28T15:30:33.980Z,41.49
2019-02-28T15:33:03.660Z,41.54
2019-02-28T15:35:34.962Z,41.97
2019-02-28T15:38:05.770Z,42.24
2019-02-28T15:40:40.438Z,42.80
2019-02-28T15:43:10.338Z,43.53
2019-02-28T15:45:39.919Z,43.66
2019-02-28T15:48:09.607Z,43.97
2019-02-28T15:50:39.079Z,44.02
2019-02-28T15:53:11.256Z,44.13
2019-02-28T15:55:39.966Z,44.33
2019-02-28T15:58:09.986Z,44.30
2019-02-28T16:00:39.614Z,44.35
2019-02-28T16:03:09.264Z,44.69
2019-02-28T16:05:42.731Z,45.03
2019-02-28T16:08:10.819Z,45.31
2019-02-28T16:10:40.467Z,45.36
2019-02-28T16:13:10.065Z,45.68
2019-02-28T16:15:39.732Z,46.22
2019-02-28T16:18:12.056Z,46.44
2019-02-28T16:20:41.011Z,46.92
2019-02-28T16:23:10.864Z,47.26
2019-02-28T16:25:40.452Z,47.35
2019-02-28T16:28:10.309Z,47.56
2019-02-28T16:30:40.331Z,47.66
2019-02-28T16:33:10.320Z,47.66
2019-02-28T16:35:41.495Z,47.70
2019-02-28T16:38:11.310Z,47.92
2019-02-28T16:40:42.558Z,48.07
2019-02-28T16:43:12.233Z,48.16
2019-02-28T16:45:46.367Z,48.31
2019-02-28T16:48:18.921Z,48.63
2019-02-28T16:50:50.640Z,48.91
2019-02-28T16:53:19.730Z,48.99
2019-02-28T16:55:49.255Z,49.21
2019-02-28T16:58:21.993Z,49.23
2019-02-28T17:00:50.141Z,49.36
2019-02-28T17:03:19.762Z,49.74
2019-02-28T17:05:49.227Z,49.73
2019-02-28T17:11:36.041Z,51.94
2019-02-28T17:14:10.213Z,53.46
2019-02-28T17:16:39.865Z,54.08
2019-02-28T17:19:09.696Z,54.43
2019-02-28T17:21:39.271Z,54.54
2019-02-28T17:24:12.165Z,54.65
2019-02-28T17:26:41.655Z,54.39
2019-02-28T17:29:12.971Z,54.54
2019-02-28T17:31:44.462Z,54.63
2019-02-28T17:34:16.548Z,54.75
2019-02-28T17:36:47.702Z,54.26
2019-02-28T17:39:17.980Z,52.43
2019-02-28T17:41:47.884Z,52.04
2019-02-28T17:44:19.795Z,51.81
2019-02-28T17:46:52.134Z,50.73
2019-02-28T17:49:27.389Z,50.58
2019-02-28T17:52:17.774Z,50.41
2019-02-28T17:54:50.488Z,49.96
2019-02-28T17:57:25.834Z,49.88
2019-02-28T17:59:58.464Z,49.79
2019-02-28T18:02:30.396Z,50.07
2019-02-28T18:05:03.861Z,49.69
2019-02-28T18:07:36.004Z,49.65
2019-02-28T18:10:08.712Z,49.54
2019-02-28T18:12:44.310Z,49.35
2019-02-28T18:15:15.581Z,49.24
2019-02-28T18:17:48.290Z,49.25
2019-02-28T18:20:21.432Z,49.55
2019-02-28T18:22:55.001Z,49.69
2019-02-28T18:25:39.517Z,49.53
2019-02-28T18:28:12.147Z,50.03
2019-02-28T18:30:46.363Z,50.75
2019-02-28T18:33:15.929Z,51.37
2019-02-28T18:35:45.230Z,51.74
2019-02-28T18:38:14.805Z,51.36
2019-02-28T18:40:44.371Z,51.35
2019-02-28T18:43:13.925Z,51.36
2019-02-28T18:45:43.443Z,51.65
2019-02-28T18:48:14.562Z,51.61
2019-02-28T18:50:51.305Z,51.94
2019-02-28T18:53:20.960Z,51.95
2019-02-28T18:55:50.565Z,51.74
2019-02-28T18:58:19.940Z,51.90
2019-02-28T19:00:49.715Z,52.05
2019-02-28T19:03:19.266Z,52.18
2019-02-28T19:05:48.850Z,52.41
2019-02-28T19:08:18.420Z,52.45
2019-02-28T19:10:48.033Z,52.50
2019-02-28T19:13:17.564Z,52.70
2019-02-28T19:15:47.338Z,52.72
2019-02-28T19:18:16.979Z,53.04
2019-02-28T19:20:46.582Z,53.13
2019-02-28T19:23:16.215Z,53.14
2019-02-28T19:25:48.772Z,53.31
2019-02-28T19:28:18.948Z,53.64
2019-02-28T19:30:50.471Z,53.55
2019-02-28T19:33:20.174Z,53.95
2019-02-28T19:35:52.841Z,54.28
2019-02-28T19:38:26.138Z,54.34
2019-02-28T19:40:56.478Z,54.53
2019-02-28T19:43:26.437Z,54.80
2019-02-28T19:45:56.773Z,54.81
2019-02-28T19:48:27.732Z,55.20
2019-02-28T19:50:57.306Z,55.55
2019-02-28T19:53:26.908Z,55.18
2019-02-28T19:55:56.857Z,55.28
2019-02-28T19:58:26.434Z,55.33
2019-02-28T20:00:56.029Z,55.33
2019-02-28T20:03:25.568Z,55.23
2019-02-28T20:05:55.238Z,55.31
2019-02-28T20:08:24.755Z,55.41
2019-02-28T20:10:54.423Z,55.76
2019-02-28T20:13:24.073Z,56.23
2019-02-28T20:15:54.058Z,56.46
2019-02-28T20:18:23.590Z,56.82
2019-02-28T20:20:53.166Z,57.21
2019-02-28T20:23:24.803Z,57.15
2019-02-28T20:25:54.355Z,57.57
2019-02-28T20:28:23.900Z,57.79
2019-02-28T20:30:53.477Z,57.85
2019-02-28T20:33:23.114Z,58.17
2019-02-28T20:35:53.105Z,58.24
2019-02-28T20:38:22.910Z,58.72
2019-02-28T20:40:52.928Z,58.72
2019-02-28T20:43:22.936Z,58.95
2019-02-28T20:45:52.666Z,59.26
2019-02-28T20:48:26.411Z,59.62
2019-02-28T20:50:56.576Z,59.75
2019-02-28T20:53:26.629Z,60.11
2019-02-28T20:55:56.361Z,60.09
2019-02-28T20:58:26.178Z,60.08
2019-02-28T21:00:56.411Z,60.30
2019-02-28T21:03:26.139Z,60.35
2019-02-28T21:05:55.914Z,60.48
2019-02-28T21:08:25.517Z,60.73
2019-02-28T21:10:55.249Z,60.69
2019-02-28T21:13:24.881Z,60.57
2019-02-28T21:15:54.975Z,60.46
2019-02-28T21:18:24.317Z,60.94
2019-02-28T21:20:53.880Z,60.85
2019-02-28T21:23:23.359Z,60.90
2019-02-28T21:25:53.034Z,61.00
2019-02-28T21:28:22.580Z,61.09
2019-02-28T21:30:52.149Z,61.17
2019-02-28T21:33:24.674Z,61.23
2019-02-28T21:35:53.979Z,61.32
2019-02-28T21:38:27.690Z,61.23
2019-02-28T21:40:57.323Z,61.35
2019-02-28T21:43:26.811Z,61.54
2019-02-28T21:45:56.285Z,61.22
2019-02-28T21:48:25.858Z,61.72
2019-02-28T21:50:55.350Z,62.44
2019-02-28T21:53:25.004Z,62.76
2019-02-28T21:55:54.621Z,62.22
2019-02-28T21:58:24.184Z,62.43
2019-02-28T22:00:53.733Z,62.57
2019-02-28T22:03:23.215Z,62.03
2019-02-28T22:05:52.774Z,62.13
2019-02-28T22:08:22.338Z,62.13
2019-02-28T22:10:51.954Z,62.63
2019-02-28T22:13:21.680Z,62.32
2019-02-28T22:15:51.279Z,62.20
2019-02-28T22:18:20.845Z,62.25
2019-02-28T22:20:50.478Z,61.85
2019-02-28T22:23:20.069Z,61.69
2019-02-28T22:25:49.643Z,61.89
2019-02-28T22:28:19.132Z,61.82
2019-02-28T22:30:49.992Z,61.98
2019-02-28T22:33:21.641Z,62.18
2019-02-28T22:35:52.879Z,61.82
2019-02-28T22:38:22.393Z,62.02
2019-02-28T22:40:51.859Z,61.55
2019-02-28T22:43:21.401Z,61.79
2019-02-28T22:45:50.940Z,61.86
2019-02-28T22:48:20.727Z,62.22
2019-02-28T22:50:50.279Z,62.70
2019-02-28T22:53:19.834Z,62.36
2019-02-28T22:55:49.414Z,62.61
2019-02-28T22:58:19.034Z,62.33
2019-02-28T23:00:53.325Z,62.70
2019-02-28T23:03:22.868Z,62.70
2019-02-28T23:05:52.339Z,62.43
2019-02-28T23:08:21.977Z,61.94
2019-02-28T23:10:51.899Z,62.09
2019-02-28T23:13:21.501Z,61.96
2019-02-28T23:15:51.063Z,62.25
2019-02-28T23:18:20.927Z,61.63
2019-02-28T23:20:50.547Z,61.51
2019-02-28T23:23:20.127Z,61.10
2019-02-28T23:25:49.796Z,61.08
2019-02-28T23:28:22.686Z,60.99
2019-02-28T23:30:55.803Z,61.88
2019-02-28T23:33:25.341Z,61.70
2019-02-28T23:35:54.720Z,61.60
2019-02-28T23:38:24.224Z,61.68
2019-02-28T23:40:56.460Z,62.04
2019-02-28T23:43:26.141Z,61.96
2019-02-28T23:45:55.737Z,62.31
2019-02-28T23:48:25.200Z,62.26
2019-02-28T23:50:54.790Z,62.45
2019-02-28T23:53:24.333Z,61.93
2019-02-28T23:55:54.005Z,62.15
2019-02-28T23:58:23.617Z,63.87
